createdAt,value
2019-03-10T00:00:05.995Z,0
2019-03-10T00:01:06.470Z,0
2019-03-10T00:02:07.513Z,0
2019-03-10T00:03:08.313Z,0
2019-03-10T00:04:08.506Z,0
2019-03-10T00:05:08.265Z,0
2019-03-10T00:06:08.461Z,0
2019-03-10T00:07:09.768Z,0
2019-03-10T00:08:10.517Z,0
2019-03-10T00:09:11.544Z,0
2019-03-10T00:10:12.576Z,0
2019-03-10T00:11:13.605Z,0
2019-03-10T00:12:14.638Z,0
2019-03-10T00:13:15.390Z,0
2019-03-10T00:14:16.349Z,0
2019-03-10T00:15:16.822Z,0
2019-03-10T00:16:17.310Z,0
2019-03-10T00:17:18.068Z,0
2019-03-10T00:18:18.373Z,0
2019-03-10T00:19:18.865Z,0
2019-03-10T00:20:19.384Z,0
2019-03-10T00:21:20.147Z,0
2019-03-10T00:22:20.900Z,0
2019-03-10T00:23:21.650Z,0
2019-03-10T00:24:22.615Z,0
2019-03-10T00:25:23.110Z,0
2019-03-10T00:26:23.864Z,0
2019-03-10T00:27:24.103Z,0
2019-03-10T00:28:25.416Z,0
2019-03-10T00:29:26.166Z,0
2019-03-10T00:30:26.920Z,0
2019-03-10T00:31:27.143Z,0
2019-03-10T00:32:27.898Z,0
2019-03-10T00:33:28.382Z,0
2019-03-10T00:34:29.306Z,0
2019-03-10T00:35:30.072Z,0
2019-03-10T00:36:30.826Z,0
2019-03-10T00:37:31.578Z,0
2019-03-10T00:38:32.606Z,0
2019-03-10T00:39:32.808Z,0
2019-03-10T00:40:33.340Z,0
2019-03-10T00:41:33.535Z,0
2019-03-10T00:42:34.280Z,0
2019-03-10T00:43:34.750Z,0
2019-03-10T00:44:35.005Z,0
2019-03-10T00:45:35.485Z,0
2019-03-10T00:46:35.960Z,0
2019-03-10T00:47:36.446Z,0
2019-03-10T00:48:36.641Z,0
2019-03-10T00:49:37.445Z,0
2019-03-10T00:50:37.925Z,0
2019-03-10T00:51:38.235Z,0
2019-03-10T00:52:38.708Z,0
2019-03-10T00:53:39.180Z,0
2019-03-10T00:54:39.383Z,0
2019-03-10T00:55:39.697Z,0
2019-03-10T00:56:40.445Z,0
2019-03-10T00:57:41.760Z,0
2019-03-10T00:58:41.788Z,0
2019-03-10T00:59:42.543Z,0
2019-03-10T01:00:43.016Z,0
2019-03-10T01:01:43.490Z,0
2019-03-10T01:02:44.252Z,0
2019-03-10T01:03:45.004Z,0
2019-03-10T01:04:45.939Z,0
2019-03-10T01:05:46.704Z,0
2019-03-10T01:06:47.468Z,0
2019-03-10T01:07:48.776Z,0
2019-03-10T01:08:49.245Z,0
2019-03-10T01:09:50.830Z,0
2019-03-10T01:10:51.321Z,0
2019-03-10T01:11:51.797Z,0
2019-03-10T01:12:53.117Z,0
2019-03-10T01:13:54.149Z,0
2019-03-10T01:14:55.086Z,0
2019-03-10T01:15:55.557Z,0
2019-03-10T01:16:56.310Z,0
2019-03-10T01:17:56.786Z,0
2019-03-10T01:18:57.825Z,0
2019-03-10T01:19:58.305Z,0
2019-03-10T01:20:58.498Z,0
2019-03-10T01:21:59.802Z,0
2019-03-10T01:23:00.000Z,0
2019-03-10T01:24:00.763Z,0
2019-03-10T01:25:01.512Z,0
2019-03-10T01:26:02.041Z,0
2019-03-10T01:27:02.240Z,0
2019-03-10T01:28:02.989Z,0
2019-03-10T01:29:04.128Z,0
2019-03-10T01:30:05.436Z,0
2019-03-10T01:31:06.226Z,0
2019-03-10T01:32:06.421Z,0
2019-03-10T01:33:07.176Z,0
2019-03-10T01:34:08.202Z,0
2019-03-10T01:35:08.745Z,0
2019-03-10T01:36:09.217Z,0
2019-03-10T01:37:09.978Z,0
2019-03-10T01:38:10.450Z,0
2019-03-10T01:39:10.644Z,0
2019-03-10T01:40:11.399Z,0
2019-03-10T01:41:11.613Z,0
2019-03-10T01:42:12.142Z,0
2019-03-10T01:43:12.667Z,0
2019-03-10T01:44:13.690Z,0
2019-03-10T01:45:13.321Z,0
2019-03-10T01:46:14.357Z,0
2019-03-10T01:47:14.847Z,0
2019-03-10T01:48:15.323Z,0
2019-03-10T01:49:16.364Z,0
2019-03-10T01:50:16.568Z,0
2019-03-10T01:51:17.652Z,0
2019-03-10T01:52:18.684Z,0
2019-03-10T01:53:28.948Z,0
2019-03-10T01:54:29.883Z,0
2019-03-10T01:55:30.083Z,0
2019-03-10T01:56:30.904Z,0
2019-03-10T01:57:31.100Z,0
2019-03-10T01:58:32.130Z,0
2019-03-10T01:59:32.887Z,0
2019-03-10T02:00:33.364Z,0
2019-03-10T02:01:34.407Z,0
2019-03-10T02:02:34.933Z,0
2019-03-10T02:03:35.408Z,0
2019-03-10T02:04:36.097Z,0
2019-03-10T02:05:36.292Z,0
2019-03-10T02:06:36.494Z,0
2019-03-10T02:07:37.833Z,0
2019-03-10T02:08:38.306Z,0
2019-03-10T02:09:38.779Z,0
2019-03-10T02:10:39.581Z,0
2019-03-10T02:11:40.059Z,0
2019-03-10T02:12:40.543Z,0
2019-03-10T02:13:41.574Z,0
2019-03-10T02:14:42.490Z,0
2019-03-10T02:15:42.690Z,0
2019-03-10T02:16:43.444Z,0
2019-03-10T02:17:44.472Z,0
2019-03-10T02:18:45.512Z,0
2019-03-10T02:19:46.824Z,0
2019-03-10T02:20:47.202Z,0
2019-03-10T02:21:47.953Z,0
2019-03-10T02:22:48.754Z,0
2019-03-10T02:23:49.844Z,0
2019-03-10T02:24:50.243Z,0
2019-03-10T02:25:51.556Z,0
2019-03-10T02:26:51.353Z,0
2019-03-10T02:27:51.834Z,0
2019-03-10T02:28:52.601Z,0
2019-03-10T02:29:53.633Z,0
2019-03-10T02:30:54.390Z,0
2019-03-10T02:31:56.009Z,0
2019-03-10T02:32:56.608Z,0
2019-03-10T02:33:56.652Z,0
2019-03-10T02:34:57.571Z,0
2019-03-10T02:35:59.477Z,0
2019-03-10T02:36:59.525Z,0
2019-03-10T02:38:01.173Z,0
2019-03-10T02:39:02.094Z,0
2019-03-10T02:40:02.109Z,0
2019-03-10T02:41:03.209Z,0
2019-03-10T02:42:03.848Z,0
2019-03-10T02:43:05.046Z,0
2019-03-10T02:44:05.422Z,0
2019-03-10T02:45:06.223Z,0
2019-03-10T02:46:06.017Z,0
2019-03-10T02:47:06.658Z,0
2019-03-10T02:48:07.748Z,0
2019-03-10T02:49:08.360Z,0
2019-03-10T02:50:09.432Z,0
2019-03-10T02:51:10.483Z,0
2019-03-10T02:52:11.277Z,0
2019-03-10T02:53:12.896Z,0
2019-03-10T02:54:12.986Z,0
2019-03-10T02:55:14.635Z,0
2019-03-10T02:56:14.702Z,0
2019-03-10T02:57:15.346Z,0
2019-03-10T02:58:16.497Z,0
2019-03-10T02:59:16.826Z,0
2019-03-10T03:00:17.646Z,0
2019-03-10T03:01:18.336Z,0
2019-03-10T03:02:19.108Z,0
2019-03-10T03:03:20.441Z,0
2019-03-10T03:04:21.847Z,0
2019-03-10T03:05:22.213Z,0
2019-03-10T03:06:23.261Z,0
2019-03-10T03:07:24.572Z,0
2019-03-10T03:08:24.905Z,0
2019-03-10T03:09:26.166Z,0
2019-03-10T03:10:26.494Z,0
2019-03-10T03:11:27.137Z,0
2019-03-10T03:12:27.196Z,0
2019-03-10T03:13:28.452Z,0
2019-03-10T03:14:29.009Z,0
2019-03-10T03:15:29.733Z,0
2019-03-10T03:16:30.892Z,0
2019-03-10T03:17:31.253Z,0
2019-03-10T03:18:31.930Z,0
2019-03-10T03:19:32.790Z,0
2019-03-10T03:20:34.104Z,0
2019-03-10T03:21:46.476Z,0
2019-03-10T03:22:46.485Z,0
2019-03-10T03:23:47.416Z,0
2019-03-10T03:24:47.567Z,0
2019-03-10T03:25:48.633Z,0
2019-03-10T03:26:49.115Z,0
2019-03-10T03:27:50.143Z,0
2019-03-10T03:28:50.455Z,0
2019-03-10T03:29:51.042Z,0
2019-03-10T03:30:52.950Z,0
2019-03-10T03:31:53.368Z,0
2019-03-10T03:32:54.436Z,0
2019-03-10T03:33:55.397Z,0
2019-03-10T03:34:55.926Z,0
2019-03-10T03:35:56.345Z,0
2019-03-10T03:36:56.661Z,0
2019-03-10T03:37:56.976Z,0
2019-03-10T03:38:58.279Z,0
2019-03-10T03:39:59.439Z,0
2019-03-10T03:41:00.157Z,0
2019-03-10T03:41:59.687Z,0
2019-03-10T03:43:01.507Z,0
2019-03-10T03:44:01.310Z,0
2019-03-10T03:45:02.526Z,0
2019-03-10T03:46:03.160Z,0
2019-03-10T03:47:03.896Z,0
2019-03-10T03:48:04.224Z,0
2019-03-10T03:49:05.560Z,0
2019-03-10T03:50:06.336Z,0
2019-03-10T03:51:07.509Z,0
2019-03-10T03:52:07.852Z,0
2019-03-10T03:53:07.775Z,0
2019-03-10T03:54:09.365Z,0
2019-03-10T03:55:09.679Z,0
2019-03-10T03:56:09.481Z,0
2019-03-10T03:57:10.531Z,0
2019-03-10T03:58:11.155Z,0
2019-03-10T03:59:12.211Z,0
2019-03-10T04:00:13.855Z,0
2019-03-10T04:01:15.055Z,0
2019-03-10T04:02:15.731Z,0
2019-03-10T04:03:15.697Z,0
2019-03-10T04:04:17.121Z,0
2019-03-10T04:05:18.166Z,0
2019-03-10T04:06:19.030Z,0
2019-03-10T04:07:19.918Z,0
2019-03-10T04:08:20.620Z,0
2019-03-10T04:09:21.293Z,0
2019-03-10T04:10:21.887Z,0
2019-03-10T04:11:22.209Z,0
2019-03-10T04:12:24.402Z,0
2019-03-10T04:13:24.546Z,0
2019-03-10T04:14:25.145Z,0
2019-03-10T04:15:26.395Z,0
2019-03-10T04:16:27.265Z,0
2019-03-10T04:17:28.072Z,0
2019-03-10T04:18:28.744Z,0
2019-03-10T04:19:29.604Z,0
2019-03-10T04:20:31.205Z,0
2019-03-10T04:21:31.699Z,0
2019-03-10T04:22:33.025Z,0
2019-03-10T04:23:34.118Z,0
2019-03-10T04:24:34.701Z,0
2019-03-10T04:25:34.736Z,0
2019-03-10T04:26:35.920Z,0
2019-03-10T04:27:36.790Z,0
2019-03-10T04:28:36.840Z,0
2019-03-10T04:29:37.160Z,0
2019-03-10T04:30:38.019Z,0
2019-03-10T04:31:39.337Z,0
2019-03-10T04:32:39.980Z,0
2019-03-10T04:33:40.491Z,0
2019-03-10T04:34:41.057Z,0
2019-03-10T04:35:41.871Z,0
2019-03-10T04:36:42.342Z,0
2019-03-10T04:37:43.383Z,0
2019-03-10T04:38:44.137Z,0
2019-03-10T04:39:45.446Z,0
2019-03-10T04:40:45.640Z,0
2019-03-10T04:41:46.403Z,0
2019-03-10T04:42:46.877Z,0
2019-03-10T04:43:48.079Z,0
2019-03-10T04:44:48.855Z,0
2019-03-10T04:45:49.328Z,0
2019-03-10T04:46:49.806Z,0
2019-03-10T04:47:50.559Z,0
2019-03-10T04:48:51.335Z,0
2019-03-10T04:49:51.085Z,0
2019-03-10T04:50:52.121Z,0
2019-03-10T04:51:52.607Z,0
2019-03-10T04:52:53.085Z,0
2019-03-10T04:53:53.646Z,0
2019-03-10T04:54:54.118Z,0
2019-03-10T04:55:54.866Z,0
2019-03-10T04:56:55.615Z,0
2019-03-10T04:57:56.088Z,0
2019-03-10T04:58:56.582Z,0
2019-03-10T04:59:57.061Z,0
2019-03-10T05:00:57.643Z,0
2019-03-10T05:01:57.428Z,0
2019-03-10T05:02:57.919Z,0
2019-03-10T05:03:58.910Z,0
2019-03-10T05:04:59.939Z,0
2019-03-10T05:06:00.607Z,0
2019-03-10T05:07:00.804Z,0
2019-03-10T05:08:01.886Z,0
2019-03-10T05:09:02.643Z,0
2019-03-10T05:10:03.449Z,0
2019-03-10T05:11:04.476Z,0
2019-03-10T05:12:06.067Z,0
2019-03-10T05:13:05.259Z,0
2019-03-10T05:14:06.134Z,0
2019-03-10T05:15:06.173Z,0
2019-03-10T05:16:07.477Z,0
2019-03-10T05:17:08.264Z,0
2019-03-10T05:18:08.732Z,0
2019-03-10T05:19:09.761Z,0
2019-03-10T05:20:11.063Z,0
2019-03-10T05:21:10.814Z,0
2019-03-10T05:22:11.285Z,4
2019-03-10T05:23:11.772Z,4
2019-03-10T05:24:13.302Z,4
2019-03-10T05:25:13.335Z,4
2019-03-10T05:26:14.123Z,0
2019-03-10T05:27:15.429Z,0
2019-03-10T05:28:15.906Z,4
2019-03-10T05:29:16.412Z,4
2019-03-10T05:30:17.455Z,4
2019-03-10T05:31:18.223Z,4
2019-03-10T05:32:18.699Z,4
2019-03-10T05:33:19.468Z,8
2019-03-10T05:34:19.668Z,8
2019-03-10T05:35:19.874Z,8
2019-03-10T05:36:20.628Z,8
2019-03-10T05:37:20.824Z,8
2019-03-10T05:38:21.573Z,12
2019-03-10T05:39:21.768Z,12
2019-03-10T05:40:22.547Z,12
2019-03-10T05:41:23.325Z,12
2019-03-10T05:42:23.353Z,16
2019-03-10T05:43:24.660Z,12
2019-03-10T05:44:25.360Z,16
2019-03-10T05:45:27.006Z,16
2019-03-10T05:46:27.593Z,16
2019-03-10T05:47:27.902Z,16
2019-03-10T05:48:28.104Z,20
2019-03-10T05:49:28.595Z,24
2019-03-10T05:50:30.192Z,28
2019-03-10T05:51:31.009Z,28
2019-03-10T05:52:31.490Z,32
2019-03-10T05:53:31.688Z,32
2019-03-10T05:54:32.170Z,32
2019-03-10T05:55:32.923Z,36
2019-03-10T05:56:33.960Z,36
2019-03-10T05:57:34.435Z,40
2019-03-10T05:58:37.916Z,48
2019-03-10T05:59:37.954Z,48
2019-03-10T06:00:45.496Z,56
2019-03-10T06:00:48.840Z,56
2019-03-10T06:01:50.396Z,60
2019-03-10T06:02:51.154Z,64
2019-03-10T06:03:51.478Z,68
2019-03-10T06:04:52.223Z,68
2019-03-10T06:05:52.697Z,72
2019-03-10T06:06:52.893Z,76
2019-03-10T06:07:53.645Z,80
2019-03-10T06:08:53.842Z,80
2019-03-10T06:09:54.874Z,88
2019-03-10T06:10:55.347Z,88
2019-03-10T06:11:55.704Z,96
2019-03-10T06:12:56.742Z,104
2019-03-10T06:13:56.938Z,116
2019-03-10T06:14:58.253Z,128
2019-03-10T06:15:59.019Z,136
2019-03-10T06:16:59.778Z,144
2019-03-10T06:18:00.267Z,160
2019-03-10T06:19:01.341Z,176
2019-03-10T06:20:02.387Z,192
2019-03-10T06:21:02.457Z,196
2019-03-10T06:22:02.724Z,192
2019-03-10T06:23:03.205Z,184
2019-03-10T06:24:04.527Z,188
2019-03-10T06:25:05.139Z,196
2019-03-10T06:26:06.204Z,200
2019-03-10T06:27:05.601Z,200
2019-03-10T06:28:05.800Z,196
2019-03-10T06:29:07.402Z,188
2019-03-10T06:30:07.881Z,192
2019-03-10T06:31:08.643Z,204
2019-03-10T06:32:08.871Z,208
2019-03-10T06:33:09.629Z,204
2019-03-10T06:34:10.704Z,212
2019-03-10T06:35:10.453Z,216
2019-03-10T06:36:11.482Z,224
2019-03-10T06:37:11.969Z,240
2019-03-10T06:38:12.722Z,248
2019-03-10T06:39:14.036Z,256
2019-03-10T06:40:14.070Z,260
2019-03-10T06:41:14.834Z,280
2019-03-10T06:42:15.033Z,300
2019-03-10T06:43:15.842Z,320
2019-03-10T06:44:16.041Z,352
2019-03-10T06:45:17.372Z,364
2019-03-10T06:46:17.579Z,340
2019-03-10T06:47:18.337Z,328
2019-03-10T06:48:18.881Z,328
2019-03-10T06:49:20.104Z,360
2019-03-10T06:50:20.313Z,400
2019-03-10T06:51:21.350Z,420
2019-03-10T06:52:21.598Z,440
2019-03-10T06:53:22.102Z,460
2019-03-10T06:54:22.578Z,440
2019-03-10T06:55:22.788Z,444
2019-03-10T06:56:23.539Z,476
2019-03-10T06:57:24.295Z,548
2019-03-10T06:58:25.326Z,648
2019-03-10T06:59:25.357Z,660
2019-03-10T07:00:25.610Z,628
2019-03-10T07:01:26.371Z,636
2019-03-10T07:02:27.018Z,668
2019-03-10T07:03:27.778Z,628
2019-03-10T07:04:28.838Z,628
2019-03-10T07:05:29.395Z,640
2019-03-10T07:06:29.601Z,664
2019-03-10T07:07:29.865Z,668
2019-03-10T07:08:32.894Z,676
2019-03-10T07:09:31.092Z,652
2019-03-10T07:10:31.569Z,660
2019-03-10T07:11:32.365Z,660
2019-03-10T07:12:33.428Z,668
2019-03-10T07:13:34.468Z,652
2019-03-10T07:14:34.671Z,608
2019-03-10T07:15:35.152Z,584
2019-03-10T07:16:36.198Z,588
2019-03-10T07:17:36.675Z,624
2019-03-10T07:18:37.714Z,640
2019-03-10T07:19:38.214Z,632
2019-03-10T07:20:38.970Z,628
2019-03-10T07:21:40.297Z,620
2019-03-10T07:22:40.793Z,652
2019-03-10T07:23:41.549Z,736
2019-03-10T07:24:42.028Z,808
2019-03-10T07:25:43.093Z,836
2019-03-10T07:26:43.856Z,920
2019-03-10T07:27:44.891Z,1052
2019-03-10T07:28:45.923Z,1156
2019-03-10T07:29:46.125Z,1204
2019-03-10T07:30:46.881Z,1212
2019-03-10T07:31:48.193Z,1148
2019-03-10T07:32:49.160Z,1048
2019-03-10T07:33:50.477Z,1052
2019-03-10T07:34:49.948Z,1020
2019-03-10T07:35:50.606Z,952
2019-03-10T07:36:51.094Z,964
2019-03-10T07:37:51.570Z,996
2019-03-10T07:38:52.328Z,972
2019-03-10T07:39:52.387Z,896
2019-03-10T07:40:53.701Z,872
2019-03-10T07:41:54.468Z,868
2019-03-10T07:42:54.716Z,844
2019-03-10T07:43:56.047Z,960
2019-03-10T07:44:56.284Z,1084
2019-03-10T07:45:57.601Z,1132
2019-03-10T07:46:57.802Z,1136
2019-03-10T07:47:58.559Z,1156
2019-03-10T07:48:59.594Z,1196
2019-03-10T07:49:59.821Z,1192
2019-03-10T07:51:00.669Z,1188
2019-03-10T07:52:01.445Z,1212
2019-03-10T07:53:01.650Z,1236
2019-03-10T07:54:02.754Z,1228
2019-03-10T07:55:02.951Z,1136
2019-03-10T07:56:03.708Z,1124
2019-03-10T07:57:04.477Z,1216
2019-03-10T07:58:05.530Z,1356
2019-03-10T07:59:06.099Z,1516
2019-03-10T08:00:07.136Z,1680
2019-03-10T08:01:07.895Z,1672
2019-03-10T08:02:08.659Z,1536
2019-03-10T08:03:09.316Z,1512
2019-03-10T08:04:10.090Z,1444
2019-03-10T08:05:10.876Z,1552
2019-03-10T08:06:11.914Z,1732
2019-03-10T08:07:12.534Z,1932
2019-03-10T08:08:13.302Z,2196
2019-03-10T08:09:14.620Z,2352
2019-03-10T08:10:14.782Z,2676
2019-03-10T08:11:15.311Z,2880
2019-03-10T08:12:16.065Z,2876
2019-03-10T08:13:17.295Z,3024
2019-03-10T08:14:18.056Z,3132
2019-03-10T08:15:18.868Z,3012
2019-03-10T08:16:19.362Z,3060
2019-03-10T08:17:19.842Z,3008
2019-03-10T08:18:20.114Z,3052
2019-03-10T08:19:20.875Z,3012
2019-03-10T08:20:21.652Z,2964
2019-03-10T08:21:22.416Z,2980
2019-03-10T08:22:22.903Z,3048
2019-03-10T08:23:24.382Z,3036
2019-03-10T08:24:24.585Z,3088
2019-03-10T08:25:25.370Z,3120
2019-03-10T08:26:26.146Z,3184
2019-03-10T08:27:27.052Z,2956
2019-03-10T08:28:27.253Z,2896
2019-03-10T08:29:28.297Z,2704
2019-03-10T08:30:28.060Z,2696
2019-03-10T08:31:29.382Z,2728
2019-03-10T08:32:30.022Z,2716
2019-03-10T08:33:30.653Z,2688
2019-03-10T08:34:30.861Z,2876
2019-03-10T08:35:32.177Z,3060
2019-03-10T08:36:31.944Z,2712
2019-03-10T08:37:32.702Z,2568
2019-03-10T08:38:33.178Z,2864
2019-03-10T08:39:33.952Z,3020
2019-03-10T08:40:34.715Z,2816
2019-03-10T08:41:35.473Z,2600
2019-03-10T08:42:35.687Z,2752
2019-03-10T08:43:36.914Z,3028
2019-03-10T08:44:37.395Z,2964
2019-03-10T08:45:38.151Z,2848
2019-03-10T08:46:38.630Z,2580
2019-03-10T08:47:39.108Z,2472
2019-03-10T08:48:39.879Z,2360
2019-03-10T08:49:50.449Z,2256
2019-03-10T08:50:50.699Z,2216
2019-03-10T08:51:51.737Z,2212
2019-03-10T08:52:53.316Z,2144
2019-03-10T08:53:53.261Z,2136
2019-03-10T08:54:54.126Z,2128
2019-03-10T08:55:54.617Z,2148
2019-03-10T08:56:55.096Z,2072
2019-03-10T08:57:58.004Z,1876
2019-03-10T08:58:56.768Z,1696
2019-03-10T08:59:57.252Z,1552
2019-03-10T09:00:58.174Z,1460
2019-03-10T09:01:58.382Z,1476
2019-03-10T09:02:59.161Z,1516
2019-03-10T09:03:59.673Z,1528
2019-03-10T09:05:00.623Z,1508
2019-03-10T09:06:00.445Z,1472
2019-03-10T09:07:00.742Z,1460
2019-03-10T09:08:01.835Z,1500
2019-03-10T09:09:02.872Z,1500
2019-03-10T09:10:03.949Z,1472
2019-03-10T09:11:04.722Z,1448
2019-03-10T09:12:05.498Z,1408
2019-03-10T09:13:05.981Z,1392
2019-03-10T09:14:06.467Z,1464
2019-03-10T09:15:07.803Z,1548
2019-03-10T09:16:08.145Z,1632
2019-03-10T09:17:08.904Z,1724
2019-03-10T09:18:08.944Z,1732
2019-03-10T09:19:09.993Z,1744
2019-03-10T09:20:11.025Z,1740
2019-03-10T09:21:10.790Z,1820
2019-03-10T09:22:11.870Z,1852
2019-03-10T09:23:12.630Z,1852
2019-03-10T09:24:13.385Z,1872
2019-03-10T09:25:14.214Z,1816
2019-03-10T09:26:14.716Z,1836
2019-03-10T09:27:15.485Z,1860
2019-03-10T09:28:15.693Z,1884
2019-03-10T09:29:16.460Z,1824
2019-03-10T09:30:17.221Z,1776
2019-03-10T09:31:17.870Z,1764
2019-03-10T09:32:18.907Z,1732
2019-03-10T09:33:19.455Z,1648
2019-03-10T09:34:20.502Z,1692
2019-03-10T09:35:21.266Z,1740
2019-03-10T09:36:21.747Z,1788
2019-03-10T09:37:22.262Z,1748
2019-03-10T09:38:23.034Z,1680
2019-03-10T09:39:23.794Z,1688
2019-03-10T09:40:24.877Z,1684
2019-03-10T09:41:25.645Z,1636
2019-03-10T09:42:26.980Z,1616
2019-03-10T09:43:27.021Z,1676
2019-03-10T09:44:27.534Z,1740
2019-03-10T09:45:28.901Z,1700
2019-03-10T09:46:29.564Z,1656
2019-03-10T09:47:31.039Z,1644
2019-03-10T09:48:31.550Z,1652
2019-03-10T09:49:32.392Z,1644
2019-03-10T09:50:32.656Z,1624
2019-03-10T09:51:34.420Z,1560
2019-03-10T09:52:40.989Z,1552
2019-03-10T09:52:46.726Z,1560
2019-03-10T09:53:45.895Z,1636
2019-03-10T09:54:45.837Z,1676
2019-03-10T09:55:46.315Z,1676
2019-03-10T09:56:47.635Z,1632
2019-03-10T09:57:48.667Z,1568
2019-03-10T09:58:49.187Z,1524
2019-03-10T09:59:49.665Z,1460
2019-03-10T10:00:51.264Z,1496
2019-03-10T10:01:53.248Z,1548
2019-03-10T10:02:54.286Z,1620
2019-03-10T10:03:55.128Z,1688
2019-03-10T10:04:56.178Z,1748
2019-03-10T10:05:56.949Z,1748
2019-03-10T10:06:57.724Z,1684
2019-03-10T10:07:58.207Z,1524
2019-03-10T10:08:59.264Z,1628
2019-03-10T10:10:00.548Z,1776
2019-03-10T10:11:01.453Z,1708
2019-03-10T10:12:14.951Z,1712
2019-03-10T10:13:13.165Z,1664
2019-03-10T10:14:13.650Z,1672
2019-03-10T10:15:14.425Z,1692
2019-03-10T10:16:14.917Z,1628
2019-03-10T10:17:15.676Z,1544
2019-03-10T10:18:16.175Z,1528
2019-03-10T10:19:17.279Z,1464
2019-03-10T10:20:18.646Z,1444
2019-03-10T10:21:19.131Z,1468
2019-03-10T10:22:19.887Z,1464
2019-03-10T10:23:20.530Z,1476
2019-03-10T10:24:21.015Z,1424
2019-03-10T10:25:21.494Z,1340
2019-03-10T10:26:27.946Z,1444
2019-03-10T10:26:33.554Z,1452
2019-03-10T10:27:36.413Z,1396
2019-03-10T10:28:35.065Z,1400
2019-03-10T10:29:36.184Z,1468
2019-03-10T10:30:36.964Z,1380
2019-03-10T10:31:37.442Z,1372
2019-03-10T10:32:38.217Z,1428
2019-03-10T10:33:38.975Z,1444
2019-03-10T10:34:41.333Z,1460
2019-03-10T10:35:40.076Z,1476
2019-03-10T10:36:40.557Z,1604
2019-03-10T10:37:41.480Z,1672
2019-03-10T10:38:42.290Z,1704
2019-03-10T10:39:48.328Z,1764
2019-03-10T10:39:54.902Z,1772
2019-03-10T10:40:53.919Z,1788
2019-03-10T10:41:54.690Z,1716
2019-03-10T10:42:55.447Z,1752
2019-03-10T10:43:56.485Z,1920
2019-03-10T10:44:56.695Z,1964
2019-03-10T10:45:57.174Z,1908
2019-03-10T10:46:57.677Z,1976
2019-03-10T10:47:58.158Z,2084
2019-03-10T10:49:04.652Z,2144
2019-03-10T10:49:13.749Z,2156
2019-03-10T10:49:20.719Z,2160
2019-03-10T10:50:20.710Z,2216
2019-03-10T10:51:20.353Z,2212
2019-03-10T10:52:21.733Z,2244
2019-03-10T10:53:23.349Z,2280
2019-03-10T10:54:24.475Z,2288
2019-03-10T10:55:25.062Z,2240
2019-03-10T10:56:29.655Z,2080
2019-03-10T10:56:35.965Z,2064
2019-03-10T10:57:36.821Z,1968
2019-03-10T10:58:37.394Z,1920
2019-03-10T10:59:38.443Z,1860
2019-03-10T11:00:39.488Z,1836
2019-03-10T11:01:40.254Z,1844
2019-03-10T11:02:41.059Z,1996
2019-03-10T11:03:41.826Z,2168
2019-03-10T11:04:42.868Z,2288
2019-03-10T11:05:43.630Z,2320
2019-03-10T11:06:44.439Z,2272
2019-03-10T11:07:45.091Z,2004
2019-03-10T11:08:45.579Z,1728
2019-03-10T11:09:46.339Z,1524
2019-03-10T11:10:47.415Z,1484
2019-03-10T11:11:47.620Z,1628
2019-03-10T11:12:48.103Z,1956
2019-03-10T11:13:48.866Z,2172
2019-03-10T11:14:50.231Z,2300
2019-03-10T11:15:50.712Z,2428
2019-03-10T11:16:52.033Z,2772
2019-03-10T11:17:51.960Z,3356
2019-03-10T11:18:52.447Z,5128
2019-03-10T11:19:53.479Z,5660
2019-03-10T11:20:56.488Z,8384
2019-03-10T11:21:55.187Z,8760
2019-03-10T11:22:59.027Z,6616
2019-03-10T11:23:57.896Z,6832
2019-03-10T11:24:58.940Z,5184
2019-03-10T11:25:59.981Z,4472
2019-03-10T11:26:59.740Z,4160
2019-03-10T11:28:00.973Z,4248
2019-03-10T11:29:05.840Z,4612
2019-03-10T11:30:05.602Z,5232
2019-03-10T11:31:06.369Z,5388
2019-03-10T11:32:07.414Z,5932
2019-03-10T11:33:08.235Z,5508
2019-03-10T11:34:08.549Z,5968
2019-03-10T11:35:09.675Z,7252
2019-03-10T11:36:10.161Z,8352
2019-03-10T11:37:10.922Z,9820
2019-03-10T11:38:11.872Z,9756
2019-03-10T11:39:12.096Z,14216
2019-03-10T11:40:12.639Z,10916
2019-03-10T11:41:13.124Z,12736
2019-03-10T11:42:14.188Z,10560
2019-03-10T11:43:14.673Z,13684
2019-03-10T11:44:15.162Z,13188
2019-03-10T11:45:15.928Z,12124
2019-03-10T11:46:16.421Z,13004
2019-03-10T11:47:17.182Z,13288
2019-03-10T11:48:18.115Z,12652
2019-03-10T11:49:18.907Z,13212
2019-03-10T11:50:19.957Z,9072
2019-03-10T11:51:20.067Z,13916
2019-03-10T11:52:20.272Z,9376
2019-03-10T11:53:21.750Z,14144
2019-03-10T11:54:22.517Z,13336
2019-03-10T11:55:24.400Z,13624
2019-03-10T11:56:23.977Z,13600
2019-03-10T11:57:24.216Z,13276
2019-03-10T11:58:25.425Z,13304
2019-03-10T11:59:25.922Z,14440
2019-03-10T12:00:26.179Z,15424
2019-03-10T12:01:27.223Z,15840
2019-03-10T12:02:28.271Z,14484
2019-03-10T12:03:28.061Z,15328
2019-03-10T12:04:29.105Z,15392
2019-03-10T12:05:29.879Z,15744
2019-03-10T12:06:31.207Z,15264
2019-03-10T12:07:31.424Z,15552
2019-03-10T12:08:32.212Z,16512
2019-03-10T12:09:32.725Z,11004
2019-03-10T12:10:32.928Z,7940
2019-03-10T12:11:33.142Z,6872
2019-03-10T12:12:33.626Z,6768
2019-03-10T12:13:33.865Z,7488
2019-03-10T12:14:34.354Z,8084
2019-03-10T12:15:35.679Z,10880
2019-03-10T12:16:35.907Z,12036
2019-03-10T12:17:36.402Z,14720
2019-03-10T12:18:37.440Z,15744
2019-03-10T12:19:38.221Z,15200
2019-03-10T12:20:38.863Z,15648
2019-03-10T12:21:39.119Z,15968
2019-03-10T12:22:41.073Z,16736
2019-03-10T12:23:41.113Z,18976
2019-03-10T12:24:41.604Z,18112
2019-03-10T12:25:42.642Z,17408
2019-03-10T12:26:43.691Z,17152
2019-03-10T12:27:44.608Z,16352
2019-03-10T12:28:44.291Z,14180
2019-03-10T12:29:45.062Z,15200
2019-03-10T12:30:46.106Z,12636
2019-03-10T12:31:46.154Z,7924
2019-03-10T12:32:46.956Z,10260
2019-03-10T12:33:50.711Z,5348
2019-03-10T12:34:49.753Z,3620
2019-03-10T12:35:49.979Z,2640
2019-03-10T12:36:51.825Z,2272
2019-03-10T12:37:51.314Z,2480
2019-03-10T12:38:52.063Z,3484
2019-03-10T12:39:52.839Z,5500
2019-03-10T12:40:53.610Z,6356
2019-03-10T12:42:00.562Z,7204
2019-03-10T12:42:04.511Z,7236
2019-03-10T12:43:04.776Z,7552
2019-03-10T12:44:05.269Z,7960
2019-03-10T12:45:06.033Z,9396
2019-03-10T12:46:07.173Z,9132
2019-03-10T12:47:13.383Z,7588
2019-03-10T12:47:22.699Z,8676
2019-03-10T12:47:31.734Z,9240
2019-03-10T12:48:29.086Z,8704
2019-03-10T12:49:29.852Z,7856
2019-03-10T12:50:30.349Z,6164
2019-03-10T12:51:31.668Z,11324
2019-03-10T12:52:32.442Z,15136
2019-03-10T12:53:32.927Z,14520
2019-03-10T12:54:33.974Z,8772
2019-03-10T12:55:34.800Z,4728
2019-03-10T12:56:35.572Z,3524
2019-03-10T12:57:35.783Z,5712
2019-03-10T12:58:36.718Z,13600
2019-03-10T12:59:37.236Z,14720
2019-03-10T13:00:37.999Z,14848
2019-03-10T13:01:39.605Z,13424
2019-03-10T13:02:39.943Z,12740
2019-03-10T13:03:42.352Z,10884
2019-03-10T13:04:41.846Z,7916
2019-03-10T13:05:42.623Z,14304
2019-03-10T13:06:44.224Z,14464
2019-03-10T13:07:45.264Z,13796
2019-03-10T13:08:46.071Z,13040
2019-03-10T13:09:46.129Z,13060
2019-03-10T13:10:46.632Z,10980
2019-03-10T13:11:47.954Z,10204
2019-03-10T13:12:48.450Z,10232
2019-03-10T13:13:48.999Z,12580
2019-03-10T13:15:01.462Z,13416
2019-03-10T13:16:00.316Z,13284
2019-03-10T13:17:00.828Z,3776
2019-03-10T13:18:01.315Z,15840
2019-03-10T13:19:02.091Z,16928
2019-03-10T13:20:03.415Z,17088
2019-03-10T13:21:03.187Z,16672
2019-03-10T13:22:03.693Z,16032
2019-03-10T13:23:04.180Z,15424
2019-03-10T13:24:04.405Z,12944
2019-03-10T13:25:05.178Z,14720
2019-03-10T13:26:06.143Z,15488
2019-03-10T13:27:06.914Z,11388
2019-03-10T13:28:07.125Z,12552
2019-03-10T13:29:07.891Z,15520
2019-03-10T13:30:08.664Z,14752
2019-03-10T13:31:09.266Z,9012
2019-03-10T13:32:10.588Z,13400
2019-03-10T13:33:11.355Z,10264
2019-03-10T13:34:12.396Z,11264
2019-03-10T13:35:12.885Z,10744
2019-03-10T13:36:13.545Z,11468
2019-03-10T13:37:14.040Z,12300
2019-03-10T13:38:14.306Z,10168
2019-03-10T13:39:15.371Z,5744
2019-03-10T13:40:16.476Z,7528
2019-03-10T13:41:16.797Z,10828
2019-03-10T13:42:17.345Z,11336
2019-03-10T13:43:18.120Z,10992
2019-03-10T13:44:19.447Z,11316
2019-03-10T13:45:19.769Z,11724
2019-03-10T13:46:20.024Z,12420
2019-03-10T13:47:20.791Z,13448
2019-03-10T13:48:20.839Z,14528
2019-03-10T13:49:21.618Z,15360
2019-03-10T13:50:22.681Z,15712
2019-03-10T13:51:23.724Z,11372
2019-03-10T13:52:24.488Z,14496
2019-03-10T13:53:24.834Z,13548
2019-03-10T13:54:26.057Z,12780
2019-03-10T13:55:27.842Z,12688